createdAt,value
2022-12-15T00:00:02.307Z,93.11
2022-12-15T00:01:02.344Z,93.11
2022-12-15T00:02:02.260Z,93.11
2022-12-15T00:03:02.392Z,93.53
2022-12-15T00:04:02.462Z,93.96
2022-12-15T00:05:02.266Z,94.06
2022-12-15T00:06:02.246Z,94.13
2022-12-15T00:07:02.281Z,94.23
2022-12-15T00:08:02.216Z,94.13
2022-12-15T00:09:02.183Z,94.13
2022-12-15T00:10:02.174Z,94.02
2022-12-15T00:11:02.162Z,93.91
2022-12-15T00:12:02.153Z,93.80
2022-12-15T00:13:02.162Z,93.70
2022-12-15T00:14:02.130Z,93.64
2022-12-15T00:15:02.121Z,93.53
2022-12-15T00:16:02.135Z,93.43
2022-12-15T00:17:02.103Z,93.43
2022-12-15T00:18:02.119Z,93.32
2022-12-15T00:19:02.082Z,93.21
2022-12-15T00:20:02.066Z,93.00
2022-12-15T00:21:02.062Z,92.90
2022-12-15T00:22:02.041Z,92.90
2022-12-15T00:23:02.055Z,93.00
2022-12-15T00:24:02.040Z,93.00
2022-12-15T00:25:02.017Z,93.00
2022-12-15T00:26:02.004Z,93.00
2022-12-15T00:27:02.002Z,93.00
2022-12-15T00:28:02.001Z,93.00
2022-12-15T00:29:01.968Z,93.00
2022-12-15T00:30:01.959Z,93.00
2022-12-15T00:31:02.657Z,92.90
2022-12-15T00:32:01.986Z,93.00
2022-12-15T00:33:01.949Z,93.00
2022-12-15T00:34:01.935Z,93.00
2022-12-15T00:35:01.914Z,92.90
2022-12-15T00:36:01.891Z,92.90
2022-12-15T00:37:01.882Z,93.00
2022-12-15T00:38:01.889Z,93.00
2022-12-15T00:39:03.951Z,93.11
2022-12-15T00:40:01.841Z,93.11
2022-12-15T00:41:01.860Z,93.21
2022-12-15T00:42:01.843Z,93.32
2022-12-15T00:43:01.839Z,93.32
2022-12-15T00:44:01.798Z,93.43
2022-12-15T00:45:01.813Z,93.43
2022-12-15T00:46:01.866Z,93.32
2022-12-15T00:47:01.850Z,93.32
2022-12-15T00:48:01.800Z,93.32
2022-12-15T00:49:01.759Z,93.32
2022-12-15T00:50:01.804Z,93.32
2022-12-15T00:51:01.729Z,93.21
2022-12-15T00:52:01.716Z,93.32
2022-12-15T00:53:01.725Z,93.32
2022-12-15T00:54:01.690Z,93.21
2022-12-15T00:55:01.717Z,93.21
2022-12-15T00:56:01.669Z,93.43
2022-12-15T00:57:01.662Z,93.53
2022-12-15T00:58:01.671Z,93.64
2022-12-15T00:59:01.639Z,93.53
2022-12-15T01:00:01.635Z,93.53
2022-12-15T01:01:01.621Z,93.43
2022-12-15T01:02:01.696Z,93.43
2022-12-15T01:03:01.867Z,93.53
2022-12-15T01:04:01.610Z,93.53
2022-12-15T01:05:01.601Z,93.53
2022-12-15T01:06:01.566Z,93.53
2022-12-15T01:07:01.556Z,93.64
2022-12-15T01:08:01.577Z,93.70
2022-12-15T01:09:01.533Z,93.70
2022-12-15T01:10:01.520Z,93.70
2022-12-15T01:11:01.530Z,93.60
2022-12-15T01:12:01.520Z,93.60
2022-12-15T01:13:01.502Z,93.60
2022-12-15T01:14:01.481Z,93.60
2022-12-15T01:15:01.461Z,93.60
2022-12-15T01:16:01.585Z,93.60
2022-12-15T01:17:01.437Z,93.43
2022-12-15T01:18:01.458Z,93.38
2022-12-15T01:19:01.426Z,93.43
2022-12-15T01:20:01.415Z,93.32
2022-12-15T01:21:01.404Z,93.21
2022-12-15T01:22:01.408Z,93.21
2022-12-15T01:23:01.442Z,93.11
2022-12-15T01:24:01.376Z,93.21
2022-12-15T01:25:01.352Z,93.21
2022-12-15T01:26:01.346Z,93.11
2022-12-15T01:27:01.331Z,93.11
2022-12-15T01:28:01.345Z,93.00
2022-12-15T01:29:01.307Z,92.90
2022-12-15T01:30:01.301Z,92.90
2022-12-15T01:31:01.338Z,93.00
2022-12-15T01:32:01.316Z,93.11
2022-12-15T01:33:01.284Z,93.21
2022-12-15T01:34:01.279Z,93.32
2022-12-15T01:35:01.312Z,93.43
2022-12-15T01:36:01.244Z,93.53
2022-12-15T01:37:01.249Z,93.64
2022-12-15T01:38:01.215Z,93.64
2022-12-15T01:39:01.240Z,93.64
2022-12-15T01:40:01.213Z,93.53
2022-12-15T01:41:01.176Z,93.43
2022-12-15T01:42:01.178Z,93.32
2022-12-15T01:43:01.165Z,93.32
2022-12-15T01:44:01.170Z,93.21
2022-12-15T01:45:01.147Z,93.11
2022-12-15T01:46:01.123Z,93.00
2022-12-15T01:47:01.245Z,92.90
2022-12-15T01:48:01.109Z,92.79
2022-12-15T01:49:01.122Z,92.79
2022-12-15T01:50:01.087Z,92.79
2022-12-15T01:51:01.078Z,92.79
2022-12-15T01:52:01.074Z,92.79
2022-12-15T01:53:01.052Z,92.79
2022-12-15T01:54:01.060Z,92.72
2022-12-15T01:55:01.031Z,92.72
2022-12-15T01:56:01.083Z,92.72
2022-12-15T01:57:01.008Z,92.62
2022-12-15T01:58:00.996Z,92.51
2022-12-15T01:59:01.014Z,92.51
2022-12-15T02:00:00.975Z,92.51
2022-12-15T02:01:01.015Z,92.41
2022-12-15T02:02:01.040Z,92.30
2022-12-15T02:03:01.138Z,92.41
2022-12-15T02:04:00.931Z,92.51
2022-12-15T02:05:00.943Z,92.41
2022-12-15T02:06:00.905Z,92.41
2022-12-15T02:07:00.900Z,92.51
2022-12-15T02:08:00.886Z,92.72
2022-12-15T02:09:00.880Z,92.72
2022-12-15T02:10:00.894Z,92.83
2022-12-15T02:11:00.861Z,93.04
2022-12-15T02:12:00.848Z,93.26
2022-12-15T02:13:00.832Z,93.36
2022-12-15T02:14:00.834Z,93.47
2022-12-15T02:15:00.854Z,93.47
2022-12-15T02:16:00.854Z,93.36
2022-12-15T02:17:00.795Z,93.26
2022-12-15T02:18:00.783Z,93.11
2022-12-15T02:19:00.776Z,93.04
2022-12-15T02:20:00.760Z,92.83
2022-12-15T02:21:01.130Z,92.72
2022-12-15T02:22:00.734Z,92.62
2022-12-15T02:23:00.728Z,92.51
2022-12-15T02:24:00.718Z,92.41
2022-12-15T02:25:00.711Z,92.19
2022-12-15T02:26:00.694Z,92.30
2022-12-15T02:27:00.715Z,92.19
2022-12-15T02:28:00.679Z,92.19
2022-12-15T02:29:00.666Z,92.30
2022-12-15T02:30:00.650Z,92.51
2022-12-15T02:31:00.645Z,92.51
2022-12-15T02:32:00.722Z,92.51
2022-12-15T02:33:00.642Z,92.41
2022-12-15T02:34:00.613Z,92.41
2022-12-15T02:35:00.600Z,92.41
2022-12-15T02:36:00.626Z,92.30
2022-12-15T02:37:00.584Z,92.30
2022-12-15T02:38:00.596Z,92.19
2022-12-15T02:39:01.473Z,92.30
2022-12-15T02:40:00.541Z,92.51
2022-12-15T02:41:00.533Z,92.62
2022-12-15T02:42:00.557Z,92.62
2022-12-15T02:43:00.516Z,92.62
2022-12-15T02:44:00.523Z,92.51
2022-12-15T02:45:00.492Z,92.51
2022-12-15T02:46:00.525Z,92.51
2022-12-15T02:47:00.481Z,92.41
2022-12-15T02:48:00.456Z,92.41
2022-12-15T02:49:00.446Z,92.51
2022-12-15T02:50:00.457Z,92.62
2022-12-15T02:51:00.456Z,92.62
2022-12-15T02:52:00.412Z,92.72
2022-12-15T02:53:00.405Z,92.79
2022-12-15T02:54:00.411Z,92.79
2022-12-15T02:55:00.405Z,92.79
2022-12-15T02:56:00.371Z,92.68
2022-12-15T02:57:00.375Z,92.79
2022-12-15T02:58:00.369Z,92.79
2022-12-15T02:59:00.347Z,92.68
2022-12-15T03:00:00.326Z,92.68
2022-12-15T03:01:00.397Z,92.68
2022-12-15T03:02:00.550Z,92.68
2022-12-15T03:03:00.545Z,92.58
2022-12-15T03:04:00.285Z,92.58
2022-12-15T03:05:00.316Z,92.58
2022-12-15T03:06:00.261Z,92.58
2022-12-15T03:07:01.396Z,92.58
2022-12-15T03:08:00.240Z,92.58
2022-12-15T03:09:00.233Z,92.58
2022-12-15T03:10:00.224Z,92.68
2022-12-15T03:11:00.207Z,92.68
2022-12-15T03:12:00.203Z,92.79
2022-12-15T03:13:00.206Z,92.90
2022-12-15T03:14:00.177Z,93.00
2022-12-15T03:15:00.165Z,93.00
2022-12-15T03:16:00.216Z,93.11
2022-12-15T03:17:00.222Z,93.00
2022-12-15T03:18:00.142Z,93.11
2022-12-15T03:19:00.246Z,93.00
2022-12-15T03:20:00.160Z,93.00
2022-12-15T03:21:00.108Z,92.90
2022-12-15T03:22:00.129Z,93.00
2022-12-15T03:23:00.080Z,92.96
2022-12-15T03:24:00.109Z,92.96
2022-12-15T03:25:00.068Z,93.00
2022-12-15T03:26:00.044Z,92.90
2022-12-15T03:27:00.033Z,93.07
2022-12-15T03:28:00.029Z,93.07
2022-12-15T03:29:00.006Z,93.07
2022-12-15T03:30:00.026Z,93.07
2022-12-15T03:30:59.985Z,93.07
2022-12-15T03:31:59.993Z,92.96
2022-12-15T03:32:59.966Z,92.85
2022-12-15T03:33:59.962Z,92.90
2022-12-15T03:34:59.944Z,92.79
2022-12-15T03:35:59.981Z,92.79
2022-12-15T03:36:59.923Z,92.79
2022-12-15T03:37:59.926Z,92.79
2022-12-15T03:38:59.911Z,92.90
2022-12-15T03:39:59.895Z,92.79
2022-12-15T03:40:59.877Z,92.79
2022-12-15T03:41:59.904Z,92.90
2022-12-15T03:42:59.856Z,92.90
2022-12-15T03:43:59.851Z,92.90
2022-12-15T03:44:59.836Z,92.90
2022-12-15T03:45:59.849Z,92.79
2022-12-15T03:47:03.163Z,92.85
2022-12-15T03:47:59.843Z,93.00
2022-12-15T03:48:59.793Z,92.90
2022-12-15T03:49:59.784Z,93.11
2022-12-15T03:50:59.771Z,93.07
2022-12-15T03:51:59.766Z,93.07
2022-12-15T03:52:59.748Z,93.07
2022-12-15T03:54:00.115Z,93.17
2022-12-15T03:54:59.723Z,93.17
2022-12-15T03:55:59.719Z,93.17
2022-12-15T03:56:59.704Z,93.17
2022-12-15T03:57:59.700Z,93.07
2022-12-15T03:58:59.687Z,92.96
2022-12-15T03:59:59.713Z,92.75
2022-12-15T04:00:59.700Z,92.96
2022-12-15T04:01:59.879Z,92.96
2022-12-15T04:02:59.840Z,93.07
2022-12-15T04:04:01.294Z,93.07
2022-12-15T04:04:59.619Z,92.96
2022-12-15T04:05:59.629Z,92.96
2022-12-15T04:06:59.594Z,92.85
2022-12-15T04:07:59.600Z,92.75
2022-12-15T04:08:59.576Z,92.75
2022-12-15T04:09:59.562Z,92.85
2022-12-15T04:10:59.559Z,92.75
2022-12-15T04:11:59.576Z,92.64
2022-12-15T04:12:59.533Z,92.75
2022-12-15T04:13:59.519Z,92.85
2022-12-15T04:14:59.512Z,92.85
2022-12-15T04:15:59.498Z,92.75
2022-12-15T04:16:59.636Z,92.75
2022-12-15T04:17:59.511Z,92.75
2022-12-15T04:18:59.471Z,92.64
2022-12-15T04:19:59.454Z,92.64
2022-12-15T04:20:59.451Z,92.64
2022-12-15T04:21:59.433Z,92.64
2022-12-15T04:22:59.426Z,92.54
2022-12-15T04:23:59.449Z,92.75
2022-12-15T04:24:59.405Z,92.75
2022-12-15T04:25:59.390Z,92.96
2022-12-15T04:26:59.382Z,93.17
2022-12-15T04:28:01.707Z,93.28
2022-12-15T04:28:59.388Z,93.38
2022-12-15T04:29:59.344Z,93.38
2022-12-15T04:30:59.374Z,93.28
2022-12-15T04:31:59.323Z,93.28
2022-12-15T04:32:59.323Z,93.28
2022-12-15T04:33:59.304Z,93.28
2022-12-15T04:34:59.328Z,93.44
2022-12-15T04:35:59.280Z,93.55
2022-12-15T04:36:59.292Z,93.55
2022-12-15T04:37:59.257Z,93.44
2022-12-15T04:38:59.252Z,93.44
2022-12-15T04:39:59.241Z,93.55
2022-12-15T04:40:59.255Z,93.44
2022-12-15T04:41:59.215Z,93.44
2022-12-15T04:42:59.208Z,93.44
2022-12-15T04:43:59.212Z,93.34
2022-12-15T04:44:59.193Z,93.24
2022-12-15T04:45:59.244Z,93.13
2022-12-15T04:46:59.175Z,93.13
2022-12-15T04:47:59.212Z,93.13
2022-12-15T04:48:59.160Z,93.13
2022-12-15T04:49:59.142Z,93.13
2022-12-15T04:50:59.189Z,93.02
2022-12-15T04:51:59.149Z,93.19
2022-12-15T04:52:59.126Z,93.09
2022-12-15T04:53:59.106Z,93.09
2022-12-15T04:54:59.082Z,92.98
2022-12-15T04:55:59.111Z,92.98
2022-12-15T04:56:59.059Z,92.88
2022-12-15T04:57:59.043Z,92.81
2022-12-15T04:58:59.036Z,92.71
2022-12-15T04:59:59.150Z,92.71
2022-12-15T05:00:59.160Z,92.71
2022-12-15T05:01:59.097Z,92.60
2022-12-15T05:02:58.992Z,92.60
2022-12-15T05:03:59.022Z,92.81
2022-12-15T05:04:58.970Z,92.81
2022-12-15T05:05:58.974Z,92.60
2022-12-15T05:06:58.950Z,92.71
2022-12-15T05:07:58.931Z,92.71
2022-12-15T05:08:58.924Z,92.92
2022-12-15T05:10:02.947Z,92.92
2022-12-15T05:10:58.919Z,92.92
2022-12-15T05:11:58.898Z,92.71
2022-12-15T05:12:58.875Z,92.81
2022-12-15T05:13:58.871Z,92.81
2022-12-15T05:14:58.856Z,92.92
2022-12-15T05:15:59.009Z,92.81
2022-12-15T05:16:58.856Z,92.81
2022-12-15T05:17:58.828Z,92.71
2022-12-15T05:18:58.813Z,92.81
2022-12-15T05:19:58.809Z,92.81
2022-12-15T05:20:58.821Z,93.02
2022-12-15T05:21:58.784Z,93.13
2022-12-15T05:22:58.767Z,93.13
2022-12-15T05:23:58.761Z,93.13
2022-12-15T05:24:58.750Z,93.13
2022-12-15T05:25:58.779Z,93.13
2022-12-15T05:26:58.723Z,93.13
2022-12-15T05:27:58.723Z,93.02
2022-12-15T05:28:58.701Z,93.02
2022-12-15T05:29:58.701Z,93.13
2022-12-15T05:30:58.765Z,93.13
2022-12-15T05:31:58.672Z,93.02
2022-12-15T05:32:58.660Z,93.13
2022-12-15T05:34:04.745Z,93.44
2022-12-15T05:34:58.647Z,93.44
2022-12-15T05:35:58.657Z,93.34
2022-12-15T05:36:58.622Z,93.34
2022-12-15T05:37:58.609Z,93.34
2022-12-15T05:38:58.595Z,93.44
2022-12-15T05:39:58.589Z,93.34
2022-12-15T05:40:58.574Z,93.34
2022-12-15T05:41:58.599Z,93.34
2022-12-15T05:42:58.550Z,93.34
2022-12-15T05:43:58.543Z,93.34
2022-12-15T05:44:58.529Z,93.34
2022-12-15T05:45:58.541Z,93.34
2022-12-15T05:46:58.504Z,93.34
2022-12-15T05:47:58.527Z,93.34
2022-12-15T05:48:58.485Z,93.24
2022-12-15T05:49:58.477Z,93.24
2022-12-15T05:50:58.463Z,93.34
2022-12-15T05:51:58.465Z,93.44
2022-12-15T05:52:58.443Z,93.44
2022-12-15T05:53:58.462Z,93.44
2022-12-15T05:54:58.421Z,93.34
2022-12-15T05:55:58.416Z,93.34
2022-12-15T05:56:58.399Z,93.44
2022-12-15T05:57:58.387Z,93.34
2022-12-15T05:58:58.409Z,93.44
2022-12-15T05:59:58.400Z,93.34
2022-12-15T06:00:58.355Z,93.24
2022-12-15T06:01:58.423Z,93.24
2022-12-15T06:02:58.384Z,93.34
2022-12-15T06:03:58.323Z,93.34
2022-12-15T06:04:58.368Z,93.44
2022-12-15T06:05:58.505Z,93.44
2022-12-15T06:06:58.293Z,93.55
2022-12-15T06:07:58.275Z,93.55
2022-12-15T06:08:58.275Z,93.55
2022-12-15T06:09:58.261Z,93.44
2022-12-15T06:10:58.242Z,93.41
2022-12-15T06:11:58.265Z,93.51
2022-12-15T06:12:58.251Z,93.62
2022-12-15T06:13:58.216Z,93.51
2022-12-15T06:14:58.203Z,93.51
2022-12-15T06:15:58.251Z,93.51
2022-12-15T06:16:58.242Z,93.41
2022-12-15T06:17:58.205Z,93.51
2022-12-15T06:18:58.182Z,93.51
2022-12-15T06:19:58.153Z,93.51
2022-12-15T06:20:58.186Z,93.62
2022-12-15T06:21:58.142Z,93.62
2022-12-15T06:22:58.114Z,93.57
2022-12-15T06:23:58.136Z,93.68
2022-12-15T06:24:58.095Z,93.57
2022-12-15T06:25:58.088Z,93.47
2022-12-15T06:26:58.069Z,93.37
2022-12-15T06:28:01.716Z,93.37
2022-12-15T06:28:58.050Z,93.37
2022-12-15T06:29:58.097Z,93.26
2022-12-15T06:30:58.068Z,93.26
2022-12-15T06:31:58.033Z,93.37
2022-12-15T06:32:58.002Z,93.37
2022-12-15T06:34:01.999Z,93.15
2022-12-15T06:34:58.010Z,93.05
2022-12-15T06:35:57.976Z,92.98
2022-12-15T06:36:57.961Z,92.98
2022-12-15T06:37:57.955Z,92.98
2022-12-15T06:38:57.946Z,92.98
2022-12-15T06:39:57.932Z,92.88
2022-12-15T06:40:57.949Z,92.88
2022-12-15T06:41:57.915Z,93.09
2022-12-15T06:42:57.894Z,93.05
2022-12-15T06:43:57.894Z,92.94
2022-12-15T06:44:57.871Z,92.98
2022-12-15T06:45:57.867Z,92.98
2022-12-15T06:46:57.930Z,93.09
2022-12-15T06:48:01.333Z,93.19
2022-12-15T06:48:57.831Z,93.09
2022-12-15T06:49:57.823Z,93.19
2022-12-15T06:50:57.806Z,93.30
2022-12-15T06:51:57.802Z,93.30
2022-12-15T06:52:57.810Z,93.41
2022-12-15T06:53:57.775Z,93.41
2022-12-15T06:54:57.787Z,93.30
2022-12-15T06:55:57.754Z,93.30
2022-12-15T06:56:57.745Z,93.19
2022-12-15T06:57:57.741Z,93.19
2022-12-15T06:58:57.744Z,93.19
2022-12-15T06:59:57.714Z,93.19
2022-12-15T07:00:57.702Z,93.19
2022-12-15T07:01:57.856Z,93.19
2022-12-15T07:02:57.864Z,93.19
2022-12-15T07:03:57.857Z,93.30
2022-12-15T07:04:57.684Z,93.30
2022-12-15T07:05:57.650Z,93.19
2022-12-15T07:06:57.633Z,93.19
2022-12-15T07:07:57.773Z,93.19
2022-12-15T07:08:57.619Z,93.19
2022-12-15T07:09:57.599Z,93.19
2022-12-15T07:10:57.978Z,93.09
2022-12-15T07:11:57.583Z,93.09
2022-12-15T07:12:57.570Z,93.19
2022-12-15T07:13:57.583Z,93.41
2022-12-15T07:14:57.550Z,93.41
2022-12-15T07:15:57.564Z,93.51
2022-12-15T07:16:57.549Z,93.51
2022-12-15T07:17:57.512Z,93.51
2022-12-15T07:18:57.505Z,93.62
2022-12-15T07:19:57.492Z,93.57
2022-12-15T07:20:57.484Z,93.68
2022-12-15T07:21:57.511Z,93.68
2022-12-15T07:22:57.460Z,93.68
2022-12-15T07:23:58.230Z,93.57
2022-12-15T07:24:57.443Z,93.57
2022-12-15T07:25:57.429Z,93.37
2022-12-15T07:26:57.421Z,93.41
2022-12-15T07:27:57.435Z,93.41
2022-12-15T07:28:57.400Z,93.47
2022-12-15T07:29:57.394Z,93.41
2022-12-15T07:30:57.378Z,93.30
2022-12-15T07:31:57.436Z,93.47
2022-12-15T07:32:57.354Z,93.57
2022-12-15T07:33:57.360Z,93.79
2022-12-15T07:34:57.338Z,93.68
2022-12-15T07:35:57.324Z,93.68
2022-12-15T07:36:57.310Z,93.57
2022-12-15T07:37:57.291Z,93.57
2022-12-15T07:38:57.317Z,93.47
2022-12-15T07:39:57.275Z,93.47
2022-12-15T07:40:57.267Z,93.47
2022-12-15T07:41:57.251Z,93.57
2022-12-15T07:42:57.248Z,93.68
2022-12-15T07:43:57.230Z,93.68
2022-12-15T07:44:57.258Z,93.68
2022-12-15T07:45:57.237Z,93.68
2022-12-15T07:46:57.201Z,93.68
2022-12-15T07:47:57.188Z,93.68
2022-12-15T07:48:57.180Z,93.57
2022-12-15T07:49:57.197Z,93.68
2022-12-15T07:51:02.762Z,93.68
2022-12-15T07:51:57.146Z,93.57
2022-12-15T07:52:57.137Z,93.47
2022-12-15T07:53:57.123Z,93.47
2022-12-15T07:54:57.118Z,93.47
2022-12-15T07:56:07.364Z,93.57
2022-12-15T07:56:57.107Z,93.47
2022-12-15T07:57:57.078Z,93.47
2022-12-15T07:58:57.075Z,93.57
2022-12-15T07:59:57.094Z,93.57
2022-12-15T08:00:57.076Z,93.57
2022-12-15T08:01:57.218Z,93.68
2022-12-15T08:02:57.247Z,93.64
2022-12-15T08:03:57.074Z,93.85
2022-12-15T08:04:57.024Z,93.96
2022-12-15T08:06:03.641Z,93.85
2022-12-15T08:06:57.011Z,93.85
2022-12-15T08:07:56.971Z,93.85
2022-12-15T08:08:56.964Z,93.74
2022-12-15T08:09:56.950Z,93.74
2022-12-15T08:10:56.936Z,93.64
2022-12-15T08:11:56.952Z,93.64
2022-12-15T08:12:56.915Z,93.64
2022-12-15T08:14:07.767Z,93.74
2022-12-15T08:14:56.900Z,93.74
2022-12-15T08:15:57.064Z,93.81
2022-12-15T08:16:56.959Z,93.81
2022-12-15T08:17:56.866Z,93.91
2022-12-15T08:18:56.846Z,94.02
2022-12-15T08:19:58.920Z,94.13
2022-12-15T08:20:56.825Z,94.13
2022-12-15T08:21:56.839Z,93.98
2022-12-15T08:22:56.802Z,93.98
2022-12-15T08:23:56.794Z,93.87
2022-12-15T08:24:56.781Z,93.77
2022-12-15T08:25:56.775Z,93.77
2022-12-15T08:26:56.795Z,93.66
2022-12-15T08:27:56.783Z,93.66
2022-12-15T08:28:57.118Z,93.77
2022-12-15T08:29:56.737Z,93.77
2022-12-15T08:30:56.740Z,93.66
2022-12-15T08:31:56.809Z,93.77
2022-12-15T08:32:56.731Z,93.87
2022-12-15T08:33:56.689Z,93.77
2022-12-15T08:34:56.672Z,93.77
2022-12-15T08:35:57.378Z,93.87
2022-12-15T08:36:56.680Z,93.73
2022-12-15T08:37:59.854Z,93.73
2022-12-15T08:38:56.657Z,93.73
2022-12-15T08:39:56.622Z,93.62
2022-12-15T08:40:56.616Z,93.62
2022-12-15T08:41:56.602Z,93.83
2022-12-15T08:42:56.586Z,93.73
2022-12-15T08:43:56.609Z,93.68
2022-12-15T08:44:56.568Z,93.68
2022-12-15T08:45:56.591Z,93.68
2022-12-15T08:46:56.540Z,93.57
2022-12-15T08:47:56.542Z,93.68
2022-12-15T08:48:56.525Z,93.47
2022-12-15T08:49:56.536Z,93.57
2022-12-15T08:50:56.500Z,93.32
2022-12-15T08:51:56.495Z,93.32
2022-12-15T08:53:28.960Z,93.32
2022-12-15T08:53:56.504Z,93.22
2022-12-15T08:54:56.577Z,93.22
2022-12-15T08:55:56.457Z,93.22
2022-12-15T08:56:56.445Z,93.32
2022-12-15T08:57:56.507Z,93.22
2022-12-15T08:58:56.424Z,93.22
2022-12-15T08:59:56.459Z,93.22
2022-12-15T09:00:56.494Z,93.07
2022-12-15T09:01:56.517Z,93.07
2022-12-15T09:02:56.395Z,92.86
2022-12-15T09:03:56.434Z,92.71
2022-12-15T09:04:56.368Z,92.60
2022-12-15T09:05:56.416Z,92.29
2022-12-15T09:06:56.407Z,92.08
2022-12-15T09:07:59.354Z,91.97
2022-12-15T09:08:56.326Z,92.08
2022-12-15T09:09:56.294Z,92.18
2022-12-15T09:10:56.355Z,91.97
2022-12-15T09:11:56.342Z,91.97
2022-12-15T09:12:56.309Z,91.86
2022-12-15T09:13:56.280Z,91.86
2022-12-15T09:14:56.308Z,91.97
2022-12-15T09:16:11.856Z,92.18
2022-12-15T09:16:56.426Z,92.40
2022-12-15T09:17:56.213Z,92.50
2022-12-15T09:18:56.207Z,92.60
2022-12-15T09:19:56.273Z,92.60
2022-12-15T09:20:56.181Z,92.57
2022-12-15T09:21:56.208Z,92.57
2022-12-15T09:22:56.184Z,92.57
2022-12-15T09:23:56.139Z,92.57
2022-12-15T09:24:56.133Z,92.57
2022-12-15T09:25:56.119Z,92.67
2022-12-15T09:26:56.200Z,92.77
2022-12-15T09:27:56.115Z,92.57
2022-12-15T09:28:56.089Z,92.67
2022-12-15T09:29:56.074Z,92.52
2022-12-15T09:30:56.107Z,92.52
2022-12-15T09:31:56.052Z,92.31
2022-12-15T09:32:56.065Z,92.21
2022-12-15T09:33:56.029Z,92.21
2022-12-15T09:34:56.030Z,92.10
2022-12-15T09:35:56.008Z,92.10
2022-12-15T09:36:56.010Z,92.21
2022-12-15T09:37:55.989Z,92.31
2022-12-15T09:38:56.007Z,92.31
2022-12-15T09:39:55.964Z,92.21
2022-12-15T09:40:55.958Z,92.16
2022-12-15T09:41:55.946Z,92.16
2022-12-15T09:43:25.816Z,92.06
2022-12-15T09:43:56.632Z,91.96
2022-12-15T09:44:55.937Z,91.96
2022-12-15T09:45:55.932Z,91.96
2022-12-15T09:46:55.890Z,91.96
2022-12-15T09:47:55.878Z,91.85
2022-12-15T09:48:55.869Z,91.70
2022-12-15T09:49:55.880Z,91.60
2022-12-15T09:50:55.848Z,91.60
2022-12-15T09:51:55.829Z,91.39
2022-12-15T09:52:55.822Z,91.39
2022-12-15T09:53:56.730Z,91.39
2022-12-15T09:54:55.884Z,91.39
2022-12-15T09:55:55.788Z,91.49
2022-12-15T09:56:55.778Z,91.60
2022-12-15T09:57:55.766Z,91.66
2022-12-15T09:58:55.757Z,91.55
2022-12-15T09:59:55.777Z,91.55
2022-12-15T10:00:55.898Z,91.45
2022-12-15T10:01:55.777Z,91.55
2022-12-15T10:02:55.934Z,91.45
2022-12-15T10:03:55.769Z,91.35
2022-12-15T10:04:55.706Z,91.41
2022-12-15T10:06:55.678Z,91.51
2022-12-15T10:07:55.654Z,91.41
2022-12-15T10:08:55.643Z,91.30
2022-12-15T10:09:55.629Z,91.41
2022-12-15T10:10:55.623Z,91.36
2022-12-15T10:11:55.635Z,91.26
2022-12-15T10:13:02.022Z,91.16
2022-12-15T10:13:55.593Z,91.05
2022-12-15T10:14:55.578Z,91.16
2022-12-15T10:15:55.634Z,91.26
2022-12-15T10:16:56.013Z,91.16
2022-12-15T10:17:55.553Z,91.16
2022-12-15T10:18:59.372Z,91.16
2022-12-15T10:19:55.542Z,90.94
2022-12-15T10:20:55.518Z,90.84
2022-12-15T10:21:55.509Z,90.94
2022-12-15T10:22:55.528Z,90.91
2022-12-15T10:23:55.546Z,90.59
2022-12-15T10:25:11.621Z,90.27
2022-12-15T10:25:55.461Z,90.38
2022-12-15T10:26:55.453Z,90.38
2022-12-15T10:27:55.457Z,90.48
2022-12-15T10:28:55.428Z,90.44
2022-12-15T10:29:55.467Z,90.44
2022-12-15T10:30:55.436Z,90.55
2022-12-15T10:31:55.389Z,90.34
2022-12-15T10:32:55.406Z,90.34
2022-12-15T10:33:55.374Z,90.34
2022-12-15T10:34:55.394Z,90.12
2022-12-15T10:35:55.351Z,89.98
2022-12-15T10:36:55.344Z,90.19
2022-12-15T10:37:55.358Z,90.30
2022-12-15T10:38:55.323Z,90.36
2022-12-15T10:39:55.302Z,90.22
2022-12-15T10:40:55.296Z,90.17
2022-12-15T10:41:55.282Z,89.47
2022-12-15T10:42:55.274Z,88.27
2022-12-15T10:43:55.277Z,87.81
2022-12-15T10:44:55.252Z,87.42
2022-12-15T10:45:55.288Z,86.54
2022-12-15T10:46:55.242Z,84.56
2022-12-15T10:47:55.212Z,84.34
2022-12-15T10:48:55.229Z,84.20
2022-12-15T10:49:55.194Z,83.85
2022-12-15T10:50:55.185Z,82.81
2022-12-15T10:51:55.172Z,81.76
2022-12-15T10:52:55.160Z,80.16
2022-12-15T10:53:55.171Z,80.97
2022-12-15T10:54:55.135Z,81.85
2022-12-15T10:55:55.122Z,82.72
2022-12-15T10:56:55.141Z,83.25
2022-12-15T10:57:55.097Z,83.52
2022-12-15T10:58:55.124Z,83.62
2022-12-15T10:59:55.081Z,83.62
2022-12-15T11:00:55.136Z,83.52
2022-12-15T11:01:55.260Z,83.31
2022-12-15T11:02:55.220Z,83.73
2022-12-15T11:03:55.336Z,83.90
2022-12-15T11:04:55.047Z,83.59
2022-12-15T11:05:55.011Z,83.38
2022-12-15T11:06:55.006Z,83.38
2022-12-15T11:07:54.990Z,83.59
2022-12-15T11:08:54.981Z,83.38
2022-12-15T11:09:55.030Z,83.27
2022-12-15T11:10:54.953Z,82.79
2022-12-15T11:11:54.948Z,83.00
2022-12-15T11:12:58.578Z,83.52
2022-12-15T11:13:54.953Z,83.77
2022-12-15T11:14:55.052Z,84.29
2022-12-15T11:15:55.216Z,84.50
2022-12-15T11:16:54.887Z,84.39
2022-12-15T11:17:54.890Z,84.71
2022-12-15T11:18:54.869Z,85.02
2022-12-15T11:20:01.929Z,85.34
2022-12-15T11:20:54.869Z,85.65
2022-12-15T11:21:54.844Z,85.65
2022-12-15T11:22:54.858Z,85.51
2022-12-15T11:23:54.836Z,84.92
2022-12-15T11:24:54.794Z,85.13
2022-12-15T11:25:54.816Z,85.09
2022-12-15T11:26:54.778Z,84.71
2022-12-15T11:27:54.811Z,85.24
2022-12-15T11:28:54.754Z,85.44
2022-12-15T11:29:54.746Z,85.65
2022-12-15T11:30:54.755Z,85.75
2022-12-15T11:31:54.732Z,85.65
2022-12-15T11:32:55.084Z,85.97
2022-12-15T11:33:54.714Z,86.14
2022-12-15T11:34:54.686Z,86.14
2022-12-15T11:35:54.703Z,86.04
2022-12-15T11:36:54.664Z,86.04
2022-12-15T11:37:54.660Z,86.14
2022-12-15T11:38:54.710Z,86.24
2022-12-15T11:39:54.634Z,86.18
2022-12-15T11:40:54.646Z,86.38
2022-12-15T11:41:54.614Z,86.80
2022-12-15T11:42:54.846Z,87.23
2022-12-15T11:43:54.633Z,87.18
2022-12-15T11:44:54.576Z,87.29
2022-12-15T11:45:54.605Z,87.18
2022-12-15T11:46:54.554Z,87.08
2022-12-15T11:47:54.549Z,86.87
2022-12-15T11:48:54.540Z,86.72
2022-12-15T11:49:54.529Z,86.41
2022-12-15T11:50:54.508Z,86.41
2022-12-15T11:51:54.520Z,86.52
2022-12-15T11:52:54.526Z,86.37
2022-12-15T11:53:54.480Z,86.27
2022-12-15T11:54:54.480Z,85.96
2022-12-15T11:55:54.460Z,86.06
2022-12-15T11:56:54.473Z,86.02
2022-12-15T11:57:54.435Z,85.50
2022-12-15T11:58:54.421Z,85.50
2022-12-15T11:59:54.414Z,85.50
2022-12-15T12:00:54.399Z,85.50
2022-12-15T12:02:02.434Z,85.50
2022-12-15T12:02:54.452Z,85.25
2022-12-15T12:03:54.370Z,85.18
2022-12-15T12:04:54.352Z,85.08
2022-12-15T12:05:54.348Z,84.97
2022-12-15T12:06:54.330Z,85.08
2022-12-15T12:07:54.369Z,85.18
2022-12-15T12:08:54.321Z,84.97
2022-12-15T12:09:54.298Z,84.94
2022-12-15T12:10:54.325Z,85.08
2022-12-15T12:11:54.276Z,84.87
2022-12-15T12:12:54.269Z,84.97
2022-12-15T12:13:54.280Z,85.29
2022-12-15T12:14:54.253Z,85.35
2022-12-15T12:15:54.239Z,84.87
2022-12-15T12:16:54.221Z,85.29
2022-12-15T12:17:54.210Z,85.29
2022-12-15T12:18:54.289Z,85.29
2022-12-15T12:19:54.185Z,85.29
2022-12-15T12:20:54.230Z,85.39
2022-12-15T12:21:54.163Z,85.08
2022-12-15T12:22:54.161Z,85.39
2022-12-15T12:23:54.165Z,85.46
2022-12-15T12:24:54.137Z,85.25
2022-12-15T12:25:55.825Z,85.08
2022-12-15T12:26:54.166Z,85.08
2022-12-15T12:27:54.094Z,85.25
2022-12-15T12:28:54.114Z,85.08
2022-12-15T12:29:54.071Z,85.39
2022-12-15T12:30:54.065Z,85.35
2022-12-15T12:31:57.710Z,85.14
2022-12-15T12:32:54.187Z,84.94
2022-12-15T12:33:54.028Z,85.14
2022-12-15T12:34:54.044Z,85.14
2022-12-15T12:35:54.008Z,85.11
2022-12-15T12:36:54.041Z,85.00
2022-12-15T12:37:58.114Z,85.00
2022-12-15T12:38:53.980Z,84.89
2022-12-15T12:39:53.977Z,84.38
2022-12-15T12:40:53.951Z,84.58
2022-12-15T12:41:53.935Z,84.17
2022-12-15T12:42:53.939Z,84.10
2022-12-15T12:43:53.913Z,84.31
2022-12-15T12:44:53.968Z,84.73
2022-12-15T12:45:53.890Z,84.83
2022-12-15T12:46:53.883Z,84.89
2022-12-15T12:47:53.868Z,84.89
2022-12-15T12:48:53.859Z,84.79
2022-12-15T12:49:53.866Z,84.69
2022-12-15T12:50:53.838Z,84.69
2022-12-15T12:51:53.826Z,84.52
2022-12-15T12:52:53.823Z,84.73